createdAt,value
2018-09-05T00:00:15.567Z,61.97
2018-09-05T00:02:44.967Z,63.00
2018-09-05T00:05:14.376Z,70.40
2018-09-05T00:07:44.382Z,72.40
2018-09-05T00:10:13.577Z,67.90
2018-09-05T00:12:42.644Z,68.57
2018-09-05T00:15:11.741Z,70.27
2018-09-05T00:17:57.090Z,66.97
2018-09-05T00:20:26.272Z,69.37
2018-09-05T00:22:55.627Z,66.80
2018-09-05T00:25:25.466Z,71.77
2018-09-05T00:27:54.640Z,72.97
2018-09-05T00:30:24.201Z,69.37
2018-09-05T00:32:53.428Z,73.93
2018-09-05T00:35:22.557Z,77.57
2018-09-05T00:37:52.459Z,73.20
2018-09-05T00:40:21.782Z,74.30
2018-09-05T00:42:51.420Z,78.17
2018-09-05T00:45:20.693Z,79.63
2018-09-05T00:47:49.846Z,74.43
2018-09-05T00:50:18.941Z,76.03
2018-09-05T00:52:49.508Z,78.27
2018-09-05T00:55:18.685Z,80.73
2018-09-05T00:57:48.119Z,73.10
2018-09-05T01:00:18.377Z,75.53
2018-09-05T01:02:47.746Z,81.20
2018-09-05T01:05:17.388Z,77.30
2018-09-05T01:07:46.852Z,74.50
2018-09-05T01:10:15.930Z,80.90
2018-09-05T01:12:45.133Z,77.97
2018-09-05T01:15:14.364Z,69.57
2018-09-05T01:17:43.532Z,78.47
2018-09-05T01:20:12.838Z,73.30
2018-09-05T01:22:42.089Z,75.73
2018-09-05T01:25:11.348Z,74.90
2018-09-05T01:27:40.579Z,74.53
2018-09-05T01:30:09.868Z,74.43
2018-09-05T01:32:39.252Z,77.73
2018-09-05T01:35:09.037Z,74.33
2018-09-05T01:37:38.146Z,82.40
2018-09-05T01:40:07.413Z,86.30
2018-09-05T01:42:36.504Z,81.23
2018-09-05T01:45:05.807Z,77.53
2018-09-05T01:47:35.165Z,71.30
2018-09-05T01:50:04.299Z,73.13
2018-09-05T01:52:33.492Z,72.80
2018-09-05T01:55:02.671Z,74.37
2018-09-05T01:57:31.982Z,78.97
2018-09-05T02:00:01.136Z,81.97
2018-09-05T02:02:30.256Z,78.77
2018-09-05T02:04:59.341Z,74.43
2018-09-05T02:07:28.541Z,72.80
2018-09-05T02:09:57.622Z,77.30
2018-09-05T02:12:26.919Z,73.47
2018-09-05T02:14:56.144Z,79.37
2018-09-05T02:17:25.427Z,83.67
2018-09-05T02:19:54.511Z,87.00
2018-09-05T02:22:24.122Z,75.43
2018-09-05T02:24:53.288Z,75.43
2018-09-05T02:27:25.458Z,73.90
2018-09-05T02:29:54.622Z,76.03
2018-09-05T02:32:23.913Z,73.77
2018-09-05T02:34:53.283Z,71.63
2018-09-05T02:37:22.489Z,85.57
2018-09-05T02:39:51.691Z,77.80
2018-09-05T02:42:21.112Z,82.93
2018-09-05T02:44:50.381Z,77.13
2018-09-05T02:47:19.803Z,75.60
2018-09-05T02:49:48.876Z,76.50
2018-09-05T02:52:18.059Z,77.93
2018-09-05T02:54:48.490Z,76.03
2018-09-05T02:57:17.565Z,73.03
2018-09-05T02:59:46.811Z,74.87
2018-09-05T03:02:16.244Z,82.50
2018-09-05T03:04:45.348Z,77.50
2018-09-05T03:07:14.416Z,73.97
2018-09-05T03:09:43.659Z,74.53
2018-09-05T03:12:18.133Z,76.07
2018-09-05T03:14:48.226Z,75.47
2018-09-05T03:17:17.347Z,69.47
2018-09-05T03:19:47.025Z,71.97
2018-09-05T03:22:16.332Z,73.33
2018-09-05T03:24:45.493Z,74.10
2018-09-05T03:27:14.656Z,69.87
2018-09-05T03:29:44.101Z,73.47
2018-09-05T03:32:13.224Z,73.83
2018-09-05T03:34:42.542Z,74.93
2018-09-05T03:37:13.171Z,69.30
2018-09-05T03:39:42.458Z,75.10
2018-09-05T03:42:11.652Z,78.10
2018-09-05T03:44:41.253Z,83.17
2018-09-05T03:47:10.540Z,74.27
2018-09-05T03:49:39.920Z,76.47
2018-09-05T03:52:09.424Z,76.67
2018-09-05T03:54:38.511Z,81.53
2018-09-05T03:57:08.973Z,75.97
2018-09-05T03:59:38.134Z,79.13
2018-09-05T04:02:07.877Z,84.80
2018-09-05T04:04:36.968Z,81.20
2018-09-05T04:07:06.751Z,80.37
2018-09-05T04:09:37.360Z,81.83
2018-09-05T04:12:08.039Z,75.27
2018-09-05T04:14:37.100Z,77.73
2018-09-05T04:17:06.416Z,81.53
2018-09-05T04:19:36.452Z,89.73
2018-09-05T04:22:05.672Z,83.57
2018-09-05T04:24:34.828Z,80.73
2018-09-05T04:27:04.007Z,78.10
2018-09-05T04:29:33.273Z,87.63
2018-09-05T04:32:04.525Z,89.33
2018-09-05T04:34:33.755Z,89.33
2018-09-05T04:37:02.992Z,92.63
2018-09-05T04:39:32.298Z,112.88
2018-09-05T04:42:02.045Z,93.37
2018-09-05T04:44:31.964Z,91.07
2018-09-05T04:47:01.427Z,89.87
2018-09-05T04:49:30.762Z,90.07
2018-09-05T04:52:00.287Z,90.67
2018-09-05T04:54:29.419Z,97.23
2018-09-05T04:56:59.042Z,91.47
2018-09-05T04:59:28.303Z,101.63
2018-09-05T05:01:57.747Z,103.13
2018-09-05T05:04:32.789Z,103.03
2018-09-05T05:07:02.248Z,101.50
2018-09-05T05:09:31.429Z,101.23
2018-09-05T05:12:00.571Z,92.40
2018-09-05T05:14:29.835Z,89.43
2018-09-05T05:16:59.010Z,91.93
2018-09-05T05:19:28.210Z,92.20
2018-09-05T05:21:57.479Z,99.90
2018-09-05T05:24:26.671Z,102.50
2018-09-05T05:26:55.976Z,88.67
2018-09-05T05:29:25.193Z,91.20
2018-09-05T05:31:54.357Z,87.90
2018-09-05T05:34:23.866Z,84.87
2018-09-05T05:36:53.183Z,97.90
2018-09-05T05:39:22.282Z,99.50
2018-09-05T05:41:51.421Z,94.93
2018-09-05T05:44:20.635Z,104.80
2018-09-05T05:46:49.919Z,105.57
2018-09-05T05:49:19.217Z,105.03
2018-09-05T05:51:48.550Z,93.83
2018-09-05T05:54:17.958Z,95.87
2018-09-05T05:56:47.229Z,93.83
2018-09-05T05:59:16.426Z,96.60
2018-09-05T06:01:45.825Z,96.13
2018-09-05T06:04:15.210Z,91.60
2018-09-05T06:06:44.452Z,87.97
2018-09-05T06:09:13.629Z,90.30
2018-09-05T06:11:43.240Z,89.57
2018-09-05T06:14:12.529Z,88.13
2018-09-05T06:16:41.720Z,90.73
2018-09-05T06:19:11.063Z,90.13
2018-09-05T06:21:40.878Z,91.63
2018-09-05T06:24:10.041Z,88.13
2018-09-05T06:26:39.372Z,89.00
2018-09-05T06:29:08.554Z,93.20
2018-09-05T06:31:37.878Z,88.03
2018-09-05T06:34:07.491Z,96.53
2018-09-05T06:36:36.781Z,93.70
2018-09-05T06:39:10.392Z,96.30
2018-09-05T06:41:39.686Z,95.80
2018-09-05T06:44:09.384Z,95.83
2018-09-05T06:46:38.693Z,97.20
2018-09-05T06:49:07.785Z,97.30
2018-09-05T06:51:36.872Z,96.00
2018-09-05T06:54:06.507Z,92.07
2018-09-05T06:56:35.916Z,95.37
2018-09-05T06:59:05.241Z,93.00
2018-09-05T07:01:35.005Z,93.30
2018-09-05T07:04:04.253Z,93.37
2018-09-05T07:06:33.654Z,87.73
2018-09-05T07:09:04.568Z,90.00
2018-09-05T07:11:33.683Z,84.33
2018-09-05T07:14:02.973Z,82.60
2018-09-05T07:16:32.560Z,96.42
2018-09-05T07:19:01.845Z,99.42
2018-09-05T07:21:31.052Z,97.85
2018-09-05T07:24:00.208Z,85.70
2018-09-05T07:26:29.545Z,101.02
2018-09-05T07:28:58.682Z,96.67
2018-09-05T07:31:27.953Z,98.72
2018-09-05T07:33:58.063Z,83.93
2018-09-05T07:36:27.297Z,79.07
2018-09-05T07:38:56.662Z,80.00
2018-09-05T07:41:25.726Z,75.43
2018-09-05T07:43:55.103Z,76.97
2018-09-05T07:46:24.182Z,75.30
2018-09-05T07:48:53.551Z,75.00
2018-09-05T07:51:22.721Z,84.67
2018-09-05T07:53:51.917Z,77.50
2018-09-05T07:56:21.182Z,82.90
2018-09-05T07:58:50.242Z,70.30
2018-09-05T08:01:19.745Z,69.83
2018-09-05T08:03:49.706Z,66.00
2018-09-05T08:06:18.855Z,66.47
2018-09-05T08:08:48.754Z,67.57
2018-09-05T08:11:17.880Z,77.45
2018-09-05T08:13:47.722Z,67.13
2018-09-05T08:16:16.984Z,67.23
2018-09-05T08:18:46.132Z,63.93
2018-09-05T08:21:16.171Z,63.50
2018-09-05T08:23:46.420Z,66.77
2018-09-05T08:26:15.781Z,61.67
2018-09-05T08:28:44.903Z,62.27
2018-09-05T08:31:14.137Z,62.00
2018-09-05T08:33:43.301Z,61.77
2018-09-05T08:36:12.687Z,60.80
2018-09-05T08:39:15.385Z,69.67
2018-09-05T08:41:44.614Z,61.63
2018-09-05T08:44:13.937Z,72.82
2018-09-05T08:46:42.835Z,64.20
2018-09-05T08:49:12.345Z,60.00
2018-09-05T08:51:41.531Z,61.07
2018-09-05T08:54:10.714Z,58.67
2018-09-05T08:56:39.788Z,54.63
2018-09-05T08:59:08.875Z,60.97
2018-09-05T09:01:38.380Z,61.67
2018-09-05T09:04:07.776Z,60.43
2018-09-05T09:06:36.951Z,63.20
2018-09-05T09:09:09.271Z,60.47
2018-09-05T09:11:38.723Z,70.12
2018-09-05T09:14:10.861Z,62.10
2018-09-05T09:16:40.263Z,62.20
2018-09-05T09:19:09.358Z,59.57
2018-09-05T09:21:38.543Z,56.73
2018-09-05T09:24:09.595Z,57.80
2018-09-05T09:26:38.737Z,59.33
2018-09-05T09:29:07.963Z,54.60
2018-09-05T09:31:37.142Z,62.35
2018-09-05T09:34:06.411Z,61.60
2018-09-05T09:36:35.882Z,59.20
2018-09-05T09:39:08.874Z,53.60
2018-09-05T09:41:38.057Z,59.03
2018-09-05T09:44:07.268Z,50.87
2018-09-05T09:46:37.102Z,64.93
2018-09-05T09:49:07.783Z,58.90
2018-09-05T09:51:36.869Z,63.83
2018-09-05T09:54:06.215Z,58.23
2018-09-05T09:56:35.696Z,56.80
2018-09-05T09:59:05.099Z,60.30
2018-09-05T10:01:39.701Z,57.23
2018-09-05T10:04:14.190Z,55.37
2018-09-05T10:06:47.745Z,51.37
2018-09-05T10:09:22.019Z,54.37
2018-09-05T10:11:56.673Z,56.90
2018-09-05T10:14:31.797Z,53.97
2018-09-05T10:17:06.463Z,50.10
2018-09-05T10:19:35.645Z,54.93
2018-09-05T10:22:04.974Z,51.60
2018-09-05T10:24:34.167Z,55.87
2018-09-05T10:27:09.509Z,48.13
2018-09-05T10:29:39.293Z,49.03
2018-09-05T10:32:08.497Z,53.02
2018-09-05T10:34:37.808Z,54.23
2018-09-05T10:37:06.936Z,52.20
2018-09-05T10:39:36.132Z,50.38
2018-09-05T10:42:05.308Z,51.50
2018-09-05T10:44:35.065Z,53.60
2018-09-05T10:47:04.155Z,52.93
2018-09-05T10:49:33.601Z,54.13
2018-09-05T10:52:04.770Z,53.33
2018-09-05T10:54:34.108Z,53.10
2018-09-05T10:57:04.165Z,52.27
2018-09-05T10:59:33.581Z,51.63
2018-09-05T11:02:03.165Z,49.40
2018-09-05T11:04:32.327Z,50.73
2018-09-05T11:07:01.584Z,50.00
2018-09-05T11:09:30.727Z,51.23
2018-09-05T11:11:59.977Z,50.77
2018-09-05T11:14:29.128Z,51.98
2018-09-05T11:16:58.590Z,53.02
2018-09-05T11:19:27.944Z,44.98
2018-09-05T11:21:57.236Z,47.20
2018-09-05T11:24:26.520Z,44.83
2018-09-05T11:26:55.737Z,44.67
2018-09-05T11:29:25.204Z,46.63
2018-09-05T11:31:54.433Z,51.90
2018-09-05T11:34:23.532Z,50.67
2018-09-05T11:36:53.892Z,51.92
2018-09-05T11:39:23.050Z,48.00
2018-09-05T11:41:52.142Z,50.35
2018-09-05T11:44:21.525Z,45.85
2018-09-05T11:46:50.641Z,47.88
2018-09-05T11:49:20.011Z,49.08
2018-09-05T11:51:49.075Z,52.88
2018-09-05T11:54:18.413Z,47.50
2018-09-05T11:56:47.606Z,47.40
2018-09-05T11:59:16.824Z,48.63
2018-09-05T12:01:46.041Z,47.95
2018-09-05T12:04:15.229Z,50.70
2018-09-05T12:06:44.737Z,46.30
2018-09-05T12:09:13.884Z,48.05
2018-09-05T12:11:43.004Z,49.05
2018-09-05T12:14:12.418Z,57.05
2018-09-05T12:16:41.811Z,49.00
2018-09-05T12:19:11.014Z,51.33
2018-09-05T12:21:40.293Z,54.15
2018-09-05T12:24:09.362Z,54.43
2018-09-05T12:26:38.611Z,51.98
2018-09-05T12:29:10.449Z,53.23
2018-09-05T12:31:40.393Z,47.30
2018-09-05T12:34:09.856Z,50.63
2018-09-05T12:36:39.087Z,48.63
2018-09-05T12:39:11.837Z,50.52
2018-09-05T12:41:41.557Z,52.70
2018-09-05T12:44:11.489Z,55.05
2018-09-05T12:46:40.550Z,53.25
2018-09-05T12:49:10.434Z,53.70
2018-09-05T12:51:39.700Z,54.77
2018-09-05T12:54:09.820Z,54.15
2018-09-05T12:56:38.961Z,52.15
2018-09-05T12:59:08.212Z,53.08
2018-09-05T13:01:37.506Z,55.65
2018-09-05T13:04:07.093Z,54.55
2018-09-05T13:06:36.584Z,58.92
2018-09-05T13:09:09.215Z,60.67
2018-09-05T13:11:38.467Z,66.25
2018-09-05T13:14:07.570Z,58.48
2018-09-05T13:16:36.975Z,57.93
2018-09-05T13:19:06.197Z,62.83
2018-09-05T13:21:35.596Z,59.30
2018-09-05T13:24:04.767Z,60.30
2018-09-05T13:26:33.956Z,57.15
2018-09-05T13:29:03.148Z,63.17
2018-09-05T13:31:32.706Z,56.58
2018-09-05T13:34:01.987Z,58.13
2018-09-05T13:36:31.165Z,59.83
2018-09-05T13:39:00.397Z,61.13
2018-09-05T13:41:29.675Z,56.28
2018-09-05T13:43:58.826Z,51.35
2018-09-05T13:46:28.637Z,56.23
2018-09-05T13:48:57.841Z,54.75
2018-09-05T13:51:27.080Z,53.08
2018-09-05T13:53:56.175Z,61.45
2018-09-05T13:56:25.653Z,58.08
2018-09-05T13:58:54.829Z,50.85
2018-09-05T14:01:24.105Z,55.75
2018-09-05T14:03:53.582Z,57.93
2018-09-05T14:06:22.896Z,63.85
2018-09-05T14:08:52.070Z,54.42
2018-09-05T14:11:21.924Z,53.70
2018-09-05T14:13:51.155Z,55.15
2018-09-05T14:16:20.525Z,56.45
2018-09-05T14:18:49.620Z,57.25
2018-09-05T14:21:18.822Z,53.15
2018-09-05T14:23:48.164Z,55.17
2018-09-05T14:26:17.399Z,53.05
2018-09-05T14:28:46.557Z,54.27
2018-09-05T14:31:15.853Z,54.03
2018-09-05T14:33:44.977Z,58.30
2018-09-05T14:36:14.185Z,57.27
2018-09-05T14:38:43.898Z,58.50
2018-09-05T14:41:12.958Z,56.37
2018-09-05T14:43:42.067Z,51.70
2018-09-05T14:46:11.961Z,52.78
2018-09-05T14:48:41.251Z,55.15
2018-09-05T14:51:10.548Z,49.20
2018-09-05T14:53:39.666Z,49.98
2018-09-05T14:56:08.935Z,50.83
2018-09-05T14:58:38.128Z,46.98
2018-09-05T15:01:08.038Z,46.02
2018-09-05T15:03:37.441Z,53.80
2018-09-05T15:06:06.573Z,51.28
2018-09-05T15:08:35.715Z,47.17
2018-09-05T15:11:05.011Z,52.55
2018-09-05T15:13:34.313Z,49.95
2018-09-05T15:16:03.402Z,54.77
2018-09-05T15:18:32.496Z,53.63
2018-09-05T15:21:02.337Z,56.37
2018-09-05T15:23:31.426Z,52.10
2018-09-05T15:26:00.731Z,45.43
2018-09-05T15:28:30.213Z,39.38
2018-09-05T15:30:59.389Z,62.43
2018-09-05T15:33:28.837Z,60.50
2018-09-05T15:35:58.698Z,60.57
2018-09-05T15:38:27.809Z,55.73
2018-09-05T15:40:56.872Z,59.90
2018-09-05T15:43:26.061Z,57.33
2018-09-05T15:45:55.147Z,63.30
2018-09-05T15:48:24.345Z,47.07
2018-09-05T15:50:53.585Z,55.30
2018-09-05T15:53:23.645Z,55.30
2018-09-05T15:55:53.042Z,56.30
2018-09-05T15:58:22.277Z,56.45
2018-09-05T16:00:51.371Z,52.87
2018-09-05T16:03:20.535Z,52.23
2018-09-05T16:05:49.924Z,50.43
2018-09-05T16:08:19.110Z,67.43
2018-09-05T16:10:48.421Z,59.17
2018-09-05T16:13:17.609Z,61.43
2018-09-05T16:15:46.690Z,61.43
2018-09-05T16:18:15.928Z,60.03
2018-09-05T16:20:45.356Z,63.23
2018-09-05T16:23:14.661Z,56.30
2018-09-05T16:25:44.131Z,53.47
2018-09-05T16:28:13.232Z,59.93
2018-09-05T16:30:43.856Z,60.57
2018-09-05T16:33:13.339Z,58.57
2018-09-05T16:35:42.804Z,56.07
2018-09-05T16:38:12.309Z,59.30
2018-09-05T16:40:41.559Z,57.43
2018-09-05T16:43:10.753Z,58.17
2018-09-05T16:45:39.981Z,60.83
2018-09-05T16:48:09.138Z,59.57
2018-09-05T16:50:38.523Z,55.30
2018-09-05T16:53:07.921Z,61.83
2018-09-05T16:55:37.341Z,64.93
2018-09-05T16:58:06.442Z,64.07
2018-09-05T17:00:35.883Z,63.93
2018-09-05T17:03:05.627Z,67.80
2018-09-05T17:05:34.754Z,67.30
2018-09-05T17:08:04.025Z,65.20
2018-09-05T17:10:33.528Z,66.90
2018-09-05T17:13:02.719Z,64.23
2018-09-05T17:15:32.189Z,67.80
2018-09-05T17:18:01.620Z,59.93
2018-09-05T17:20:30.886Z,59.30
2018-09-05T17:23:00.339Z,59.77
2018-09-05T17:25:29.661Z,57.70
2018-09-05T17:27:58.792Z,62.67
2018-09-05T17:30:27.978Z,53.27
2018-09-05T17:32:57.482Z,63.83
2018-09-05T17:35:26.863Z,66.00
2018-09-05T17:37:56.136Z,62.87
2018-09-05T17:40:25.407Z,63.57
2018-09-05T17:42:55.367Z,58.03
2018-09-05T17:45:24.555Z,56.23
2018-09-05T17:47:53.821Z,62.23
2018-09-05T17:50:23.074Z,52.87
2018-09-05T17:52:52.277Z,53.87
2018-09-05T17:55:21.495Z,59.07
2018-09-05T17:57:50.801Z,64.30
2018-09-05T18:00:20.046Z,66.27
2018-09-05T18:02:49.200Z,61.93
2018-09-05T18:05:18.438Z,66.03
2018-09-05T18:07:47.905Z,65.00
2018-09-05T18:10:17.230Z,66.63
2018-09-05T18:12:46.533Z,70.50
2018-09-05T18:15:15.756Z,74.03
2018-09-05T18:17:45.680Z,74.77
2018-09-05T18:20:15.726Z,78.67
2018-09-05T18:22:44.847Z,74.57
2018-09-05T18:25:14.231Z,80.57
2018-09-05T18:27:44.744Z,81.10
2018-09-05T18:30:14.015Z,83.87
2018-09-05T18:32:43.281Z,83.53
2018-09-05T18:35:12.626Z,88.93
2018-09-05T18:37:41.893Z,88.80
2018-09-05T18:40:11.038Z,87.47
2018-09-05T18:42:40.661Z,87.50
2018-09-05T18:45:09.810Z,85.73
2018-09-05T18:47:39.091Z,81.47
2018-09-05T18:50:08.483Z,83.13
2018-09-05T18:52:37.982Z,76.13
2018-09-05T18:55:07.219Z,76.63
2018-09-05T18:57:36.350Z,69.77
2018-09-05T19:00:05.665Z,70.87
2018-09-05T19:02:34.824Z,67.33
2018-09-05T19:05:04.318Z,65.77
2018-09-05T19:07:33.912Z,64.17
2018-09-05T19:10:03.298Z,61.53
2018-09-05T19:12:32.546Z,62.03
2018-09-05T19:15:01.884Z,62.00
2018-09-05T19:17:31.092Z,60.77
2018-09-05T19:20:00.364Z,54.37
2018-09-05T19:22:29.612Z,51.47
2018-09-05T19:24:58.860Z,51.30
2018-09-05T19:27:28.322Z,50.20
2018-09-05T19:29:58.163Z,48.20
2018-09-05T19:32:27.434Z,45.67
2018-09-05T19:34:57.350Z,36.57
2018-09-05T19:37:26.622Z,33.50
2018-09-05T19:39:55.756Z,33.50
2018-09-05T19:42:25.009Z,32.87
2018-09-05T19:44:54.737Z,31.73
2018-09-05T19:47:24.055Z,29.13
2018-09-05T19:49:53.268Z,27.33
2018-09-05T19:52:24.909Z,29.87
2018-09-05T19:54:54.068Z,28.03
2018-09-05T19:57:23.334Z,27.83
2018-09-05T19:59:52.452Z,27.40
2018-09-05T20:02:21.711Z,27.73
2018-09-05T20:04:51.407Z,28.17
2018-09-05T20:07:20.665Z,27.07
2018-09-05T20:09:49.792Z,26.37
2018-09-05T20:12:19.367Z,26.80
2018-09-05T20:14:48.923Z,26.93
2018-09-05T20:17:18.543Z,23.00
2018-09-05T20:19:47.815Z,24.57
2018-09-05T20:22:17.158Z,26.80
2018-09-05T20:24:46.595Z,24.53
2018-09-05T20:27:15.975Z,25.07
2018-09-05T20:29:45.180Z,24.40
2018-09-05T20:32:14.314Z,23.17
2018-09-05T20:34:43.547Z,20.73
2018-09-05T20:37:12.674Z,20.70
2018-09-05T20:39:41.869Z,18.57
2018-09-05T20:42:11.174Z,18.27
2018-09-05T20:44:40.423Z,15.40
2018-09-05T20:47:10.832Z,14.70
2018-09-05T20:49:40.200Z,15.07
2018-09-05T20:52:09.469Z,13.80
2018-09-05T20:54:38.765Z,11.70
2018-09-05T20:57:07.957Z,10.33
2018-09-05T20:59:37.209Z,9.17
2018-09-05T21:02:06.950Z,9.73
2018-09-05T21:04:36.170Z,10.30
2018-09-05T21:07:05.379Z,11.77
2018-09-05T21:09:34.609Z,14.50
2018-09-05T21:12:03.704Z,11.38
2018-09-05T21:14:32.887Z,12.80
2018-09-05T21:17:02.662Z,11.97
2018-09-05T21:19:31.721Z,12.50
2018-09-05T21:22:00.815Z,14.27
2018-09-05T21:24:29.968Z,13.90
2018-09-05T21:26:59.047Z,13.97
2018-09-05T21:29:28.349Z,13.67
2018-09-05T21:31:57.631Z,13.90
2018-09-05T21:34:26.820Z,14.57
2018-09-05T21:36:56.944Z,16.40
2018-09-05T21:39:26.227Z,15.67
2018-09-05T21:41:55.504Z,16.27
2018-09-05T21:44:24.829Z,16.97
2018-09-05T21:46:54.164Z,18.67
2018-09-05T21:49:24.100Z,18.33
2018-09-05T21:51:53.988Z,18.77
2018-09-05T21:54:23.123Z,24.00
2018-09-05T21:56:52.369Z,25.00
2018-09-05T21:59:21.660Z,25.50
2018-09-05T22:01:50.871Z,25.97
2018-09-05T22:04:20.071Z,30.80
2018-09-05T22:06:49.256Z,31.30
2018-09-05T22:09:18.559Z,34.77
2018-09-05T22:11:47.622Z,33.33
2018-09-05T22:14:19.792Z,35.10
2018-09-05T22:16:49.123Z,45.27
2018-09-05T22:19:18.340Z,38.20
2018-09-05T22:21:47.658Z,40.90
2018-09-05T22:24:16.823Z,45.90
2018-09-05T22:26:46.350Z,40.10
2018-09-05T22:29:16.379Z,37.90
2018-09-05T22:31:46.680Z,35.87
2018-09-05T22:34:17.015Z,35.30
2018-09-05T22:36:46.276Z,36.10
2018-09-05T22:39:15.512Z,37.17
2018-09-05T22:41:44.657Z,33.97
2018-09-05T22:44:25.260Z,45.23
2018-09-05T22:47:05.499Z,51.80
2018-09-05T22:49:58.243Z,47.00
2018-09-05T22:52:46.415Z,45.53
2018-09-05T22:56:30.165Z,41.10
2018-09-05T22:59:25.398Z,39.60
2018-09-05T23:14:25.197Z,39.10
2018-09-05T23:17:13.490Z,36.23
2018-09-05T23:19:54.803Z,36.60
2018-09-05T23:22:24.231Z,31.33
2018-09-05T23:24:53.321Z,30.57
2018-09-05T23:27:23.322Z,30.47
2018-09-05T23:29:52.612Z,28.37
2018-09-05T23:32:21.881Z,28.03
2018-09-05T23:34:50.970Z,26.50
2018-09-05T23:37:20.100Z,26.67
2018-09-05T23:39:49.264Z,26.97
2018-09-05T23:42:18.615Z,29.43
2018-09-05T23:44:47.773Z,28.90
2018-09-05T23:47:17.672Z,29.37
2018-09-05T23:49:46.782Z,29.07
2018-09-05T23:52:15.885Z,29.97
2018-09-05T23:54:44.968Z,30.33
2018-09-05T23:57:14.160Z,30.87
2018-09-05T23:59:43.966Z,32.70
